sensor_id;sensor_type;location;lat;lon;timestamp;temperature;humidity
17992;DHT22;9121;50.926;5.340;2022-11-15T00:01:19;11.50;99.90
17992;DHT22;9121;50.926;5.340;2022-11-15T00:03:46;11.50;99.90
17992;DHT22;9121;50.926;5.340;2022-11-15T00:06:18;11.50;99.90
17992;DHT22;9121;50.926;5.340;2022-11-15T00:08:45;11.60;99.90
17992;DHT22;9121;50.926;5.340;2022-11-15T00:11:12;11.60;99.90
17992;DHT22;9121;50.926;5.340;2022-11-15T00:13:40;11.60;99.90
17992;DHT22;9121;50.926;5.340;2022-11-15T00:16:08;11.60;99.90
17992;DHT22;9121;50.926;5.340;2022-11-15T00:18:35;11.60;99.90
17992;DHT22;9121;50.926;5.340;2022-11-15T00:21:05;11.60;99.90
17992;DHT22;9121;50.926;5.340;2022-11-15T00:23:34;11.60;99.90
17992;DHT22;9121;50.926;5.340;2022-11-15T00:26:01;11.60;99.90
17992;DHT22;9121;50.926;5.340;2022-11-15T00:28:28;11.70;99.90
17992;DHT22;9121;50.926;5.340;2022-11-15T00:31:00;11.60;99.90
17992;DHT22;9121;50.926;5.340;2022-11-15T00:33:27;11.70;99.90
17992;DHT22;9121;50.926;5.340;2022-11-15T00:35:59;11.70;99.90
17992;DHT22;9121;50.926;5.340;2022-11-15T00:38:31;11.70;99.90
17992;DHT22;9121;50.926;5.340;2022-11-15T00:41:00;11.70;99.90
17992;DHT22;9121;50.926;5.340;2022-11-15T00:43:27;11.70;99.90
17992;DHT22;9121;50.926;5.340;2022-11-15T00:45:54;11.70;99.90
17992;DHT22;9121;50.926;5.340;2022-11-15T00:48:21;11.70;99.90
17992;DHT22;9121;50.926;5.340;2022-11-15T00:50:48;11.70;99.90
17992;DHT22;9121;50.926;5.340;2022-11-15T00:53:15;11.70;99.90
17992;DHT22;9121;50.926;5.340;2022-11-15T00:55:43;11.70;99.90
17992;DHT22;9121;50.926;5.340;2022-11-15T00:58:11;11.80;99.90
17992;DHT22;9121;50.926;5.340;2022-11-15T01:00:38;11.80;99.90
17992;DHT22;9121;50.926;5.340;2022-11-15T01:03:05;11.80;99.90
17992;DHT22;9121;50.926;5.340;2022-11-15T01:05:32;11.80;99.90
17992;DHT22;9121;50.926;5.340;2022-11-15T01:07:59;11.80;99.90
17992;DHT22;9121;50.926;5.340;2022-11-15T01:10:26;11.80;99.90
17992;DHT22;9121;50.926;5.340;2022-11-15T01:12:53;11.80;99.90
17992;DHT22;9121;50.926;5.340;2022-11-15T01:15:21;11.80;99.90
17992;DHT22;9121;50.926;5.340;2022-11-15T01:17:48;11.90;99.90
17992;DHT22;9121;50.926;5.340;2022-11-15T01:20:15;11.90;99.90
17992;DHT22;9121;50.926;5.340;2022-11-15T01:22:42;11.90;99.90
17992;DHT22;9121;50.926;5.340;2022-11-15T01:25:09;11.90;99.90
17992;DHT22;9121;50.926;5.340;2022-11-15T01:27:36;11.90;99.90
17992;DHT22;9121;50.926;5.340;2022-11-15T01:30:03;11.90;99.90
17992;DHT22;9121;50.926;5.340;2022-11-15T01:32:32;11.90;99.90
17992;DHT22;9121;50.926;5.340;2022-11-15T01:34:59;11.90;99.90
17992;DHT22;9121;50.926;5.340;2022-11-15T01:37:26;11.90;99.90
17992;DHT22;9121;50.926;5.340;2022-11-15T01:39:52;11.90;99.90
17992;DHT22;9121;50.926;5.340;2022-11-15T01:42:19;11.90;99.90
17992;DHT22;9121;50.926;5.340;2022-11-15T01:44:48;11.90;99.90
17992;DHT22;9121;50.926;5.340;2022-11-15T01:47:17;11.90;99.90
17992;DHT22;9121;50.926;5.340;2022-11-15T01:49:52;11.80;99.90
17992;DHT22;9121;50.926;5.340;2022-11-15T01:52:23;12.00;99.90
17992;DHT22;9121;50.926;5.340;2022-11-15T01:54:54;12.00;99.90
17992;DHT22;9121;50.926;5.340;2022-11-15T01:57:22;12.00;99.90
17992;DHT22;9121;50.926;5.340;2022-11-15T01:59:49;12.00;99.90
17992;DHT22;9121;50.926;5.340;2022-11-15T02:02:16;12.00;99.90
17992;DHT22;9121;50.926;5.340;2022-11-15T02:04:44;12.00;99.90
17992;DHT22;9121;50.926;5.340;2022-11-15T02:07:15;12.10;99.90
17992;DHT22;9121;50.926;5.340;2022-11-15T02:09:43;12.10;99.90
17992;DHT22;9121;50.926;5.340;2022-11-15T02:12:13;12.10;99.90
17992;DHT22;9121;50.926;5.340;2022-11-15T02:14:42;12.10;99.90
17992;DHT22;9121;50.926;5.340;2022-11-15T02:17:37;12.10;99.90
17992;DHT22;9121;50.926;5.340;2022-11-15T02:26:45;12.20;99.90
17992;DHT22;9121;50.926;5.340;2022-11-15T02:29:15;12.20;99.90
17992;DHT22;9121;50.926;5.340;2022-11-15T02:31:50;12.20;99.90
17992;DHT22;9121;50.926;5.340;2022-11-15T02:34:25;12.20;99.90
17992;DHT22;9121;50.926;5.340;2022-11-15T02:37:00;12.30;99.90
17992;DHT22;9121;50.926;5.340;2022-11-15T02:39:35;12.20;99.90
17992;DHT22;9121;50.926;5.340;2022-11-15T02:42:09;12.20;99.90
17992;DHT22;9121;50.926;5.340;2022-11-15T02:45:08;12.20;99.90
17992;DHT22;9121;50.926;5.340;2022-11-15T02:47:42;12.20;99.90
17992;DHT22;9121;50.926;5.340;2022-11-15T02:50:12;12.20;99.90
17992;DHT22;9121;50.926;5.340;2022-11-15T02:52:40;12.30;99.90
17992;DHT22;9121;50.926;5.340;2022-11-15T02:55:25;12.30;99.90
17992;DHT22;9121;50.926;5.340;2022-11-15T02:57:57;12.30;99.90
17992;DHT22;9121;50.926;5.340;2022-11-15T03:00:34;12.30;99.90
17992;DHT22;9121;50.926;5.340;2022-11-15T03:03:29;12.30;99.90
17992;DHT22;9121;50.926;5.340;2022-11-15T03:06:03;12.30;99.90
17992;DHT22;9121;50.926;5.340;2022-11-15T03:08:37;12.30;99.90
17992;DHT22;9121;50.926;5.340;2022-11-15T03:11:09;12.30;99.90
17992;DHT22;9121;50.926;5.340;2022-11-15T03:13:42;12.30;99.90
17992;DHT22;9121;50.926;5.340;2022-11-15T03:16:18;12.30;99.90
17992;DHT22;9121;50.926;5.340;2022-11-15T03:18:52;12.30;99.90
17992;DHT22;9121;50.926;5.340;2022-11-15T03:21:20;12.30;99.90
17992;DHT22;9121;50.926;5.340;2022-11-15T03:23:48;12.30;99.90
17992;DHT22;9121;50.926;5.340;2022-11-15T03:26:19;12.30;99.90
17992;DHT22;9121;50.926;5.340;2022-11-15T03:28:51;12.30;99.90
17992;DHT22;9121;50.926;5.340;2022-11-15T03:31:21;12.30;99.90
17992;DHT22;9121;50.926;5.340;2022-11-15T03:34:11;12.30;99.90
17992;DHT22;9121;50.926;5.340;2022-11-15T03:36:39;12.30;99.90
17992;DHT22;9121;50.926;5.340;2022-11-15T03:39:07;12.20;99.90
17992;DHT22;9121;50.926;5.340;2022-11-15T03:41:39;12.20;99.90
17992;DHT22;9121;50.926;5.340;2022-11-15T03:44:17;12.20;99.90
17992;DHT22;9121;50.926;5.340;2022-11-15T03:46:51;12.20;99.90
17992;DHT22;9121;50.926;5.340;2022-11-15T03:49:27;12.20;99.90
17992;DHT22;9121;50.926;5.340;2022-11-15T03:51:57;12.20;99.90
17992;DHT22;9121;50.926;5.340;2022-11-15T03:54:24;12.20;99.90
17992;DHT22;9121;50.926;5.340;2022-11-15T03:56:51;12.20;99.90
17992;DHT22;9121;50.926;5.340;2022-11-15T03:59:18;12.20;99.90
17992;DHT22;9121;50.926;5.340;2022-11-15T04:01:45;12.20;99.90
17992;DHT22;9121;50.926;5.340;2022-11-15T04:04:12;12.10;99.90
17992;DHT22;9121;50.926;5.340;2022-11-15T04:06:41;12.10;99.90
17992;DHT22;9121;50.926;5.340;2022-11-15T04:09:07;12.10;99.90
17992;DHT22;9121;50.926;5.340;2022-11-15T04:11:34;12.10;99.90
17992;DHT22;9121;50.926;5.340;2022-11-15T04:14:01;12.10;99.90
17992;DHT22;9121;50.926;5.340;2022-11-15T04:16:28;12.10;99.90
17992;DHT22;9121;50.926;5.340;2022-11-15T04:18:55;12.20;99.90
17992;DHT22;9121;50.926;5.340;2022-11-15T04:21:36;12.20;99.90
17992;DHT22;9121;50.926;5.340;2022-11-15T04:24:30;12.10;99.90
17992;DHT22;9121;50.926;5.340;2022-11-15T04:26:57;12.10;99.90
17992;DHT22;9121;50.926;5.340;2022-11-15T04:29:24;12.10;99.90
17992;DHT22;9121;50.926;5.340;2022-11-15T04:32:04;12.10;99.90
17992;DHT22;9121;50.926;5.340;2022-11-15T04:34:32;12.10;99.90
17992;DHT22;9121;50.926;5.340;2022-11-15T04:36:59;12.10;99.90
17992;DHT22;9121;50.926;5.340;2022-11-15T04:39:40;12.10;99.90
17992;DHT22;9121;50.926;5.340;2022-11-15T04:42:07;12.10;99.90
17992;DHT22;9121;50.926;5.340;2022-11-15T04:44:34;12.20;99.90
17992;DHT22;9121;50.926;5.340;2022-11-15T04:47:02;12.10;99.90
17992;DHT22;9121;50.926;5.340;2022-11-15T04:49:29;12.20;99.90
17992;DHT22;9121;50.926;5.340;2022-11-15T04:51:56;12.10;99.90
17992;DHT22;9121;50.926;5.340;2022-11-15T04:54:22;12.20;99.90
17992;DHT22;9121;50.926;5.340;2022-11-15T04:56:51;12.20;99.90
17992;DHT22;9121;50.926;5.340;2022-11-15T04:59:18;12.10;99.90
17992;DHT22;9121;50.926;5.340;2022-11-15T05:01:44;12.00;99.90
17992;DHT22;9121;50.926;5.340;2022-11-15T05:04:11;11.80;99.90
17992;DHT22;9121;50.926;5.340;2022-11-15T05:06:48;11.70;99.90
17992;DHT22;9121;50.926;5.340;2022-11-15T05:09:16;11.60;99.90
17992;DHT22;9121;50.926;5.340;2022-11-15T05:11:43;11.50;99.90
17992;DHT22;9121;50.926;5.340;2022-11-15T05:14:11;11.50;99.90
17992;DHT22;9121;50.926;5.340;2022-11-15T05:16:38;11.40;99.90
17992;DHT22;9121;50.926;5.340;2022-11-15T05:19:06;11.40;99.90
17992;DHT22;9121;50.926;5.340;2022-11-15T05:21:33;11.40;99.90
17992;DHT22;9121;50.926;5.340;2022-11-15T05:24:01;11.40;99.90
17992;DHT22;9121;50.926;5.340;2022-11-15T05:26:28;11.40;99.90
17992;DHT22;9121;50.926;5.340;2022-11-15T05:28:56;11.30;99.90
17992;DHT22;9121;50.926;5.340;2022-11-15T05:31:26;11.40;99.90
17992;DHT22;9121;50.926;5.340;2022-11-15T05:33:54;11.40;99.90
17992;DHT22;9121;50.926;5.340;2022-11-15T05:36:27;11.40;99.90
17992;DHT22;9121;50.926;5.340;2022-11-15T05:38:55;11.40;99.90
17992;DHT22;9121;50.926;5.340;2022-11-15T05:41:26;11.50;99.90
17992;DHT22;9121;50.926;5.340;2022-11-15T05:43:57;11.50;99.90
17992;DHT22;9121;50.926;5.340;2022-11-15T05:46:26;11.50;99.90
17992;DHT22;9121;50.926;5.340;2022-11-15T05:48:53;11.40;99.90
17992;DHT22;9121;50.926;5.340;2022-11-15T05:51:22;11.40;99.90
17992;DHT22;9121;50.926;5.340;2022-11-15T05:53:50;11.40;99.90
17992;DHT22;9121;50.926;5.340;2022-11-15T05:56:17;11.40;99.90
17992;DHT22;9121;50.926;5.340;2022-11-15T05:58:44;11.40;99.90
17992;DHT22;9121;50.926;5.340;2022-11-15T06:01:11;11.30;99.90
17992;DHT22;9121;50.926;5.340;2022-11-15T06:03:40;11.30;99.90
17992;DHT22;9121;50.926;5.340;2022-11-15T06:06:07;11.30;99.90
17992;DHT22;9121;50.926;5.340;2022-11-15T06:08:34;11.30;99.90
17992;DHT22;9121;50.926;5.340;2022-11-15T06:11:04;11.30;99.90
17992;DHT22;9121;50.926;5.340;2022-11-15T06:13:31;11.30;99.90
17992;DHT22;9121;50.926;5.340;2022-11-15T06:15:58;11.30;99.90
17992;DHT22;9121;50.926;5.340;2022-11-15T06:18:25;11.30;99.90
17992;DHT22;9121;50.926;5.340;2022-11-15T06:20:54;11.30;99.90
17992;DHT22;9121;50.926;5.340;2022-11-15T06:23:24;11.30;99.90
17992;DHT22;9121;50.926;5.340;2022-11-15T06:25:51;11.40;99.90
17992;DHT22;9121;50.926;5.340;2022-11-15T06:28:18;11.40;99.90
17992;DHT22;9121;50.926;5.340;2022-11-15T06:30:45;11.30;99.90
17992;DHT22;9121;50.926;5.340;2022-11-15T06:33:12;11.30;99.90
17992;DHT22;9121;50.926;5.340;2022-11-15T06:35:39;11.30;99.90
17992;DHT22;9121;50.926;5.340;2022-11-15T06:38:09;11.30;99.90
17992;DHT22;9121;50.926;5.340;2022-11-15T06:40:39;11.30;99.90
17992;DHT22;9121;50.926;5.340;2022-11-15T06:43:06;11.20;99.90
17992;DHT22;9121;50.926;5.340;2022-11-15T06:45:33;11.10;99.90
17992;DHT22;9121;50.926;5.340;2022-11-15T06:48:01;11.10;99.90
17992;DHT22;9121;50.926;5.340;2022-11-15T06:50:28;11.10;99.90
17992;DHT22;9121;50.926;5.340;2022-11-15T06:52:55;11.10;99.90
17992;DHT22;9121;50.926;5.340;2022-11-15T06:55:23;11.10;99.90
17992;DHT22;9121;50.926;5.340;2022-11-15T06:57:51;11.00;99.90
17992;DHT22;9121;50.926;5.340;2022-11-15T07:00:20;11.00;99.90
17992;DHT22;9121;50.926;5.340;2022-11-15T07:02:48;11.00;99.90
17992;DHT22;9121;50.926;5.340;2022-11-15T07:05:16;11.00;99.90
17992;DHT22;9121;50.926;5.340;2022-11-15T07:07:45;11.00;99.90
17992;DHT22;9121;50.926;5.340;2022-11-15T07:10:17;11.10;99.90
17992;DHT22;9121;50.926;5.340;2022-11-15T07:12:48;11.00;99.90
17992;DHT22;9121;50.926;5.340;2022-11-15T07:15:15;11.00;99.90
17992;DHT22;9121;50.926;5.340;2022-11-15T07:17:42;11.00;99.90
17992;DHT22;9121;50.926;5.340;2022-11-15T07:20:10;11.00;99.90
17992;DHT22;9121;50.926;5.340;2022-11-15T07:22:38;11.00;99.90
17992;DHT22;9121;50.926;5.340;2022-11-15T07:25:07;11.00;99.90
17992;DHT22;9121;50.926;5.340;2022-11-15T07:27:34;11.10;99.90
17992;DHT22;9121;50.926;5.340;2022-11-15T07:30:03;11.10;99.90
17992;DHT22;9121;50.926;5.340;2022-11-15T07:32:30;11.00;99.90
17992;DHT22;9121;50.926;5.340;2022-11-15T07:34:57;11.00;99.90
17992;DHT22;9121;50.926;5.340;2022-11-15T07:37:24;11.00;99.90
17992;DHT22;9121;50.926;5.340;2022-11-15T07:39:51;10.90;99.90
17992;DHT22;9121;50.926;5.340;2022-11-15T07:42:18;10.90;99.90
17992;DHT22;9121;50.926;5.340;2022-11-15T07:45:19;10.90;99.90
17992;DHT22;9121;50.926;5.340;2022-11-15T07:47:47;10.90;99.90
17992;DHT22;9121;50.926;5.340;2022-11-15T07:50:14;10.90;99.90
17992;DHT22;9121;50.926;5.340;2022-11-15T07:52:41;11.00;99.90
17992;DHT22;9121;50.926;5.340;2022-11-15T07:55:08;11.00;99.90
17992;DHT22;9121;50.926;5.340;2022-11-15T07:57:36;11.00;99.90
17992;DHT22;9121;50.926;5.340;2022-11-15T08:00:04;11.10;99.90
17992;DHT22;9121;50.926;5.340;2022-11-15T08:02:33;11.20;99.90
17992;DHT22;9121;50.926;5.340;2022-11-15T08:05:00;11.20;99.90
17992;DHT22;9121;50.926;5.340;2022-11-15T08:07:28;11.20;99.90
17992;DHT22;9121;50.926;5.340;2022-11-15T08:09:56;11.20;99.90
17992;DHT22;9121;50.926;5.340;2022-11-15T08:12:24;11.20;99.90
17992;DHT22;9121;50.926;5.340;2022-11-15T08:14:51;11.20;99.90
17992;DHT22;9121;50.926;5.340;2022-11-15T08:17:18;11.20;99.90
17992;DHT22;9121;50.926;5.340;2022-11-15T08:19:46;11.10;99.90
17992;DHT22;9121;50.926;5.340;2022-11-15T08:22:14;11.10;99.90
17992;DHT22;9121;50.926;5.340;2022-11-15T08:24:41;11.10;99.90
17992;DHT22;9121;50.926;5.340;2022-11-15T08:27:08;11.10;99.90
17992;DHT22;9121;50.926;5.340;2022-11-15T08:29:40;11.10;99.90
17992;DHT22;9121;50.926;5.340;2022-11-15T08:32:08;11.10;99.90
17992;DHT22;9121;50.926;5.340;2022-11-15T08:34:35;11.10;99.90
17992;DHT22;9121;50.926;5.340;2022-11-15T08:37:05;11.10;99.90
17992;DHT22;9121;50.926;5.340;2022-11-15T08:39:32;11.10;99.90
17992;DHT22;9121;50.926;5.340;2022-11-15T08:41:59;11.10;99.90
17992;DHT22;9121;50.926;5.340;2022-11-15T08:44:26;11.10;99.90
17992;DHT22;9121;50.926;5.340;2022-11-15T08:46:53;11.20;99.90
17992;DHT22;9121;50.926;5.340;2022-11-15T08:49:20;11.20;99.90
17992;DHT22;9121;50.926;5.340;2022-11-15T08:51:47;11.20;99.90
17992;DHT22;9121;50.926;5.340;2022-11-15T08:54:15;11.30;99.90
17992;DHT22;9121;50.926;5.340;2022-11-15T08:56:42;11.30;99.90
17992;DHT22;9121;50.926;5.340;2022-11-15T08:59:09;11.30;99.90
17992;DHT22;9121;50.926;5.340;2022-11-15T09:01:36;11.40;99.90
17992;DHT22;9121;50.926;5.340;2022-11-15T09:04:03;11.50;99.90
17992;DHT22;9121;50.926;5.340;2022-11-15T09:06:30;11.50;99.90
17992;DHT22;9121;50.926;5.340;2022-11-15T09:08:57;11.60;99.90
17992;DHT22;9121;50.926;5.340;2022-11-15T09:11:26;11.70;99.90
17992;DHT22;9121;50.926;5.340;2022-11-15T09:13:53;11.70;99.90
17992;DHT22;9121;50.926;5.340;2022-11-15T09:16:20;11.80;99.90
17992;DHT22;9121;50.926;5.340;2022-11-15T09:18:47;11.70;99.90
17992;DHT22;9121;50.926;5.340;2022-11-15T09:21:14;11.70;99.90
17992;DHT22;9121;50.926;5.340;2022-11-15T09:23:41;11.70;99.90
17992;DHT22;9121;50.926;5.340;2022-11-15T09:26:08;11.70;99.90
17992;DHT22;9121;50.926;5.340;2022-11-15T09:28:37;11.70;99.90
17992;DHT22;9121;50.926;5.340;2022-11-15T09:31:07;11.70;99.90
17992;DHT22;9121;50.926;5.340;2022-11-15T09:33:34;11.70;99.90
17992;DHT22;9121;50.926;5.340;2022-11-15T09:36:03;11.60;99.90
17992;DHT22;9121;50.926;5.340;2022-11-15T09:38:31;11.60;99.90
17992;DHT22;9121;50.926;5.340;2022-11-15T09:41:15;11.60;99.90
17992;DHT22;9121;50.926;5.340;2022-11-15T09:43:52;11.60;99.90
17992;DHT22;9121;50.926;5.340;2022-11-15T09:46:28;11.70;99.90
17992;DHT22;9121;50.926;5.340;2022-11-15T09:48:59;11.70;99.90
17992;DHT22;9121;50.926;5.340;2022-11-15T09:51:30;11.70;99.90
17992;DHT22;9121;50.926;5.340;2022-11-15T09:54:05;11.90;99.90
17992;DHT22;9121;50.926;5.340;2022-11-15T09:56:38;12.00;99.90
17992;DHT22;9121;50.926;5.340;2022-11-15T09:59:25;12.10;99.90
17992;DHT22;9121;50.926;5.340;2022-11-15T10:02:00;12.20;99.90
17992;DHT22;9121;50.926;5.340;2022-11-15T10:04:36;12.20;99.90
17992;DHT22;9121;50.926;5.340;2022-11-15T10:07:13;12.20;99.90
17992;DHT22;9121;50.926;5.340;2022-11-15T10:09:45;12.20;99.90
17992;DHT22;9121;50.926;5.340;2022-11-15T10:12:14;12.30;99.90
17992;DHT22;9121;50.926;5.340;2022-11-15T10:14:43;12.40;99.90
17992;DHT22;9121;50.926;5.340;2022-11-15T10:20:22;12.50;99.90
17992;DHT22;9121;50.926;5.340;2022-11-15T10:22:51;12.40;99.90
17992;DHT22;9121;50.926;5.340;2022-11-15T10:25:21;12.40;99.90
17992;DHT22;9121;50.926;5.340;2022-11-15T10:27:54;12.50;99.90
17992;DHT22;9121;50.926;5.340;2022-11-15T10:30:29;12.60;99.90
17992;DHT22;9121;50.926;5.340;2022-11-15T10:32:56;12.60;99.90
17992;DHT22;9121;50.926;5.340;2022-11-15T10:35:27;12.60;99.90
17992;DHT22;9121;50.926;5.340;2022-11-15T10:38:05;12.60;99.90
17992;DHT22;9121;50.926;5.340;2022-11-15T10:40:33;12.50;99.90
17992;DHT22;9121;50.926;5.340;2022-11-15T10:43:15;12.40;99.90
17992;DHT22;9121;50.926;5.340;2022-11-15T10:45:45;12.40;99.90
17992;DHT22;9121;50.926;5.340;2022-11-15T10:48:23;12.40;99.90
17992;DHT22;9121;50.926;5.340;2022-11-15T10:50:52;12.50;99.90
17992;DHT22;9121;50.926;5.340;2022-11-15T10:53:24;12.60;99.90
17992;DHT22;9121;50.926;5.340;2022-11-15T10:55:54;12.70;99.90
17992;DHT22;9121;50.926;5.340;2022-11-15T10:58:33;12.70;99.90
17992;DHT22;9121;50.926;5.340;2022-11-15T11:01:15;12.70;99.90
17992;DHT22;9121;50.926;5.340;2022-11-15T11:03:44;12.80;99.90
17992;DHT22;9121;50.926;5.340;2022-11-15T11:06:13;12.80;99.90
17992;DHT22;9121;50.926;5.340;2022-11-15T11:08:40;12.90;99.90
17992;DHT22;9121;50.926;5.340;2022-11-15T11:11:19;13.00;99.90
17992;DHT22;9121;50.926;5.340;2022-11-15T11:13:46;13.10;99.90
17992;DHT22;9121;50.926;5.340;2022-11-15T11:16:29;13.10;99.90
17992;DHT22;9121;50.926;5.340;2022-11-15T11:19:08;13.10;99.90
17992;DHT22;9121;50.926;5.340;2022-11-15T11:21:45;13.20;99.90
17992;DHT22;9121;50.926;5.340;2022-11-15T11:24:20;13.30;99.90
17992;DHT22;9121;50.926;5.340;2022-11-15T11:27:01;13.50;99.90
17992;DHT22;9121;50.926;5.340;2022-11-15T11:29:38;13.50;99.90
17992;DHT22;9121;50.926;5.340;2022-11-15T11:32:25;13.50;99.90
17992;DHT22;9121;50.926;5.340;2022-11-15T11:35:00;13.50;99.90
17992;DHT22;9121;50.926;5.340;2022-11-15T11:37:34;13.50;99.90
17992;DHT22;9121;50.926;5.340;2022-11-15T11:40:14;13.60;99.90
17992;DHT22;9121;50.926;5.340;2022-11-15T11:42:49;13.60;99.90
17992;DHT22;9121;50.926;5.340;2022-11-15T11:45:37;13.60;99.90
17992;DHT22;9121;50.926;5.340;2022-11-15T11:48:12;13.50;99.90
17992;DHT22;9121;50.926;5.340;2022-11-15T11:50:41;13.50;99.90
17992;DHT22;9121;50.926;5.340;2022-11-15T11:53:14;13.60;99.90
17992;DHT22;9121;50.926;5.340;2022-11-15T11:55:43;13.60;99.90
17992;DHT22;9121;50.926;5.340;2022-11-15T11:58:14;13.70;99.90
17992;DHT22;9121;50.926;5.340;2022-11-15T12:00:46;13.70;99.90
17992;DHT22;9121;50.926;5.340;2022-11-15T12:03:22;13.70;99.90
17992;DHT22;9121;50.926;5.340;2022-11-15T12:05:54;13.70;99.90
17992;DHT22;9121;50.926;5.340;2022-11-15T12:08:31;13.70;99.90
17992;DHT22;9121;50.926;5.340;2022-11-15T12:11:07;13.70;99.90
17992;DHT22;9121;50.926;5.340;2022-11-15T12:13:36;13.70;99.90
17992;DHT22;9121;50.926;5.340;2022-11-15T12:16:11;13.70;99.90
17992;DHT22;9121;50.926;5.340;2022-11-15T12:18:44;13.80;99.90
17992;DHT22;9121;50.926;5.340;2022-11-15T12:21:18;13.80;99.90
17992;DHT22;9121;50.926;5.340;2022-11-15T12:23:49;14.00;99.90
17992;DHT22;9121;50.926;5.340;2022-11-15T12:26:20;14.00;99.90
17992;DHT22;9121;50.926;5.340;2022-11-15T12:28:52;14.10;99.90
17992;DHT22;9121;50.926;5.340;2022-11-15T12:31:24;14.00;99.90
17992;DHT22;9121;50.926;5.340;2022-11-15T12:33:57;14.00;99.90
17992;DHT22;9121;50.926;5.340;2022-11-15T12:36:35;14.00;99.90
17992;DHT22;9121;50.926;5.340;2022-11-15T12:39:04;14.00;99.90
17992;DHT22;9121;50.926;5.340;2022-11-15T12:41:33;13.90;99.90
17992;DHT22;9121;50.926;5.340;2022-11-15T12:44:01;14.00;99.90
17992;DHT22;9121;50.926;5.340;2022-11-15T12:47:00;14.00;99.90
17992;DHT22;9121;50.926;5.340;2022-11-15T12:49:45;14.10;99.90
17992;DHT22;9121;50.926;5.340;2022-11-15T12:52:12;14.10;99.90
17992;DHT22;9121;50.926;5.340;2022-11-15T12:54:57;14.20;99.90
17992;DHT22;9121;50.926;5.340;2022-11-15T12:57:37;14.20;99.90
17992;DHT22;9121;50.926;5.340;2022-11-15T13:03:21;14.20;99.90
17992;DHT22;9121;50.926;5.340;2022-11-15T13:06:09;14.30;99.90
17992;DHT22;9121;50.926;5.340;2022-11-15T13:08:46;14.30;99.90
17992;DHT22;9121;50.926;5.340;2022-11-15T13:11:50;14.30;99.90
17992;DHT22;9121;50.926;5.340;2022-11-15T13:14:40;14.30;99.90
17992;DHT22;9121;50.926;5.340;2022-11-15T13:17:29;14.40;99.90
17992;DHT22;9121;50.926;5.340;2022-11-15T13:20:11;14.40;99.90
17992;DHT22;9121;50.926;5.340;2022-11-15T13:22:46;14.40;99.90
17992;DHT22;9121;50.926;5.340;2022-11-15T13:25:47;14.30;99.90
17992;DHT22;9121;50.926;5.340;2022-11-15T13:28:24;14.30;99.90
17992;DHT22;9121;50.926;5.340;2022-11-15T13:30:53;14.40;99.90
17992;DHT22;9121;50.926;5.340;2022-11-15T13:33:23;14.40;99.90
17992;DHT22;9121;50.926;5.340;2022-11-15T13:35:52;14.40;99.90
17992;DHT22;9121;50.926;5.340;2022-11-15T13:38:28;14.40;99.90
17992;DHT22;9121;50.926;5.340;2022-11-15T13:40:56;14.40;99.90
17992;DHT22;9121;50.926;5.340;2022-11-15T13:43:29;14.40;99.90
17992;DHT22;9121;50.926;5.340;2022-11-15T13:46:05;14.40;99.90
17992;DHT22;9121;50.926;5.340;2022-11-15T13:48:33;14.50;99.90
17992;DHT22;9121;50.926;5.340;2022-11-15T13:51:01;14.50;99.90
17992;DHT22;9121;50.926;5.340;2022-11-15T13:53:30;14.50;99.90
17992;DHT22;9121;50.926;5.340;2022-11-15T13:55:59;14.50;99.90
17992;DHT22;9121;50.926;5.340;2022-11-15T13:58:26;14.60;99.90
17992;DHT22;9121;50.926;5.340;2022-11-15T14:01:00;14.50;99.90
17992;DHT22;9121;50.926;5.340;2022-11-15T14:03:30;14.50;99.90
17992;DHT22;9121;50.926;5.340;2022-11-15T14:06:06;14.50;99.90
17992;DHT22;9121;50.926;5.340;2022-11-15T14:08:37;14.50;99.90
17992;DHT22;9121;50.926;5.340;2022-11-15T14:11:16;14.40;99.90
17992;DHT22;9121;50.926;5.340;2022-11-15T14:14:02;14.40;99.90
17992;DHT22;9121;50.926;5.340;2022-11-15T14:16:34;14.40;99.90
17992;DHT22;9121;50.926;5.340;2022-11-15T14:19:03;14.30;99.90
17992;DHT22;9121;50.926;5.340;2022-11-15T14:21:30;14.30;99.90
17992;DHT22;9121;50.926;5.340;2022-11-15T14:24:17;14.30;99.90
17992;DHT22;9121;50.926;5.340;2022-11-15T14:26:45;14.30;99.90
17992;DHT22;9121;50.926;5.340;2022-11-15T14:29:22;14.20;99.90
17992;DHT22;9121;50.926;5.340;2022-11-15T14:31:49;14.20;99.90
17992;DHT22;9121;50.926;5.340;2022-11-15T14:34:16;14.20;99.90
17992;DHT22;9121;50.926;5.340;2022-11-15T14:36:44;14.10;99.90
17992;DHT22;9121;50.926;5.340;2022-11-15T14:39:11;14.00;99.90
17992;DHT22;9121;50.926;5.340;2022-11-15T14:41:40;14.00;99.90
17992;DHT22;9121;50.926;5.340;2022-11-15T14:44:10;14.00;99.90
17992;DHT22;9121;50.926;5.340;2022-11-15T14:46:37;14.10;99.90
17992;DHT22;9121;50.926;5.340;2022-11-15T14:49:04;14.10;99.90
17992;DHT22;9121;50.926;5.340;2022-11-15T14:51:31;14.00;99.90
17992;DHT22;9121;50.926;5.340;2022-11-15T14:53:59;14.00;99.90
17992;DHT22;9121;50.926;5.340;2022-11-15T14:56:26;14.10;99.90
17992;DHT22;9121;50.926;5.340;2022-11-15T14:58:55;14.10;99.90
17992;DHT22;9121;50.926;5.340;2022-11-15T15:01:25;14.00;99.90
17992;DHT22;9121;50.926;5.340;2022-11-15T15:03:52;14.00;99.90
17992;DHT22;9121;50.926;5.340;2022-11-15T15:06:21;14.00;99.90
17992;DHT22;9121;50.926;5.340;2022-11-15T15:08:48;14.00;99.90
17992;DHT22;9121;50.926;5.340;2022-11-15T15:11:20;14.00;99.90
17992;DHT22;9121;50.926;5.340;2022-11-15T15:13:48;14.00;99.90
17992;DHT22;9121;50.926;5.340;2022-11-15T15:16:16;14.00;99.90
17992;DHT22;9121;50.926;5.340;2022-11-15T15:18:43;14.00;99.90
17992;DHT22;9121;50.926;5.340;2022-11-15T15:21:19;14.00;99.90
17992;DHT22;9121;50.926;5.340;2022-11-15T15:23:46;14.00;99.90
17992;DHT22;9121;50.926;5.340;2022-11-15T15:26:14;14.00;99.90
17992;DHT22;9121;50.926;5.340;2022-11-15T15:28:41;14.00;99.90
17992;DHT22;9121;50.926;5.340;2022-11-15T15:31:08;13.90;99.90
17992;DHT22;9121;50.926;5.340;2022-11-15T15:33:37;13.90;99.90
17992;DHT22;9121;50.926;5.340;2022-11-15T15:36:05;13.90;99.90
17992;DHT22;9121;50.926;5.340;2022-11-15T15:38:32;13.90;99.90
17992;DHT22;9121;50.926;5.340;2022-11-15T15:40:58;13.90;99.90
17992;DHT22;9121;50.926;5.340;2022-11-15T15:43:28;13.80;99.90
17992;DHT22;9121;50.926;5.340;2022-11-15T15:45:55;13.70;99.90
17992;DHT22;9121;50.926;5.340;2022-11-15T15:48:22;13.70;99.90
17992;DHT22;9121;50.926;5.340;2022-11-15T15:50:50;13.70;99.90
17992;DHT22;9121;50.926;5.340;2022-11-15T15:53:17;13.70;99.90
17992;DHT22;9121;50.926;5.340;2022-11-15T15:55:44;13.70;99.90
17992;DHT22;9121;50.926;5.340;2022-11-15T15:58:11;13.60;99.90
17992;DHT22;9121;50.926;5.340;2022-11-15T16:00:38;13.50;99.90
17992;DHT22;9121;50.926;5.340;2022-11-15T16:03:05;13.40;99.90
17992;DHT22;9121;50.926;5.340;2022-11-15T16:05:32;13.30;99.90
17992;DHT22;9121;50.926;5.340;2022-11-15T16:08:01;13.10;99.90
17992;DHT22;9121;50.926;5.340;2022-11-15T16:10:29;13.00;99.90
17992;DHT22;9121;50.926;5.340;2022-11-15T16:12:58;13.00;99.90
17992;DHT22;9121;50.926;5.340;2022-11-15T16:15:26;12.90;99.90
17992;DHT22;9121;50.926;5.340;2022-11-15T16:17:55;13.00;99.90
17992;DHT22;9121;50.926;5.340;2022-11-15T16:20:31;12.90;99.90